Terminal Aerodrome Forecast
Issued by NWS

Home | Current Version | Previous Version | Text Only | Print | Product List | Glossary On
Versions: 1 2 3 4 5 6 7 8 9 10 11 12 13 14
000
FTUS46 KSGX 301233 AAA
TAFPSP
TAF AMD
KPSP 301233Z 3013/0112 33015G25KT P6SM SKC
      TEMPO 3013/3017 11004KT P6SM SKC
     FM302000 31015G25KT P6SM VCTS SCT080CB
     FM010400 32013KT P6SM SCT100
     FM011000 32007KT P6SM SKC=

USA.gov is the U.S. government's official web portal to all federal, state and local government web resources and services.